createdAt,value
2018-04-25T00:02:09.933Z,14.07
2018-04-25T00:04:37.484Z,15.87
2018-04-25T00:07:05.033Z,13.80
2018-04-25T00:09:32.611Z,13.70
2018-04-25T00:12:00.158Z,12.40
2018-04-25T00:14:27.719Z,12.50
2018-04-25T00:16:55.269Z,13.30
2018-04-25T00:19:22.835Z,12.17
2018-04-25T00:21:50.375Z,12.63
2018-04-25T00:24:17.966Z,12.83
2018-04-25T00:26:45.517Z,11.50
2018-04-25T00:29:13.087Z,10.97
2018-04-25T00:31:40.663Z,10.43
2018-04-25T00:34:08.221Z,10.30
2018-04-25T00:36:35.763Z,11.27
2018-04-25T00:39:03.349Z,10.57
2018-04-25T00:41:30.888Z,11.60
2018-04-25T00:43:59.240Z,11.67
2018-04-25T00:46:26.813Z,10.57
2018-04-25T00:48:54.377Z,10.60
2018-04-25T00:51:21.925Z,10.23
2018-04-25T00:53:49.524Z,10.50
2018-04-25T00:56:17.080Z,10.07
2018-04-25T00:58:44.661Z,10.80
2018-04-25T01:01:12.208Z,10.90
2018-04-25T01:03:39.789Z,9.87
2018-04-25T01:06:08.127Z,11.10
2018-04-25T01:08:35.716Z,11.00
2018-04-25T01:11:03.246Z,9.83
2018-04-25T01:13:30.816Z,10.70
2018-04-25T01:15:58.368Z,10.63
2018-04-25T01:18:25.948Z,10.70
2018-04-25T01:20:54.420Z,10.07
2018-04-25T01:23:24.591Z,11.07
2018-04-25T01:25:58.729Z,10.77
2018-04-25T01:28:26.301Z,10.97
2018-04-25T01:30:57.499Z,10.10
2018-04-25T01:33:26.774Z,10.93
2018-04-25T01:35:57.132Z,11.20
2018-04-25T01:38:24.679Z,10.73
2018-04-25T01:40:53.122Z,11.23
2018-04-25T01:43:21.571Z,11.13
2018-04-25T01:45:51.036Z,11.67
2018-04-25T01:51:47.475Z,11.20
2018-04-25T01:54:27.790Z,11.33
2018-04-25T01:57:07.069Z,11.00
2018-04-25T01:59:46.478Z,11.87
2018-04-25T02:02:13.535Z,10.30
2018-04-25T02:04:41.110Z,11.60
2018-04-25T02:07:08.662Z,11.40
2018-04-25T02:09:36.235Z,10.40
2018-04-25T02:12:03.799Z,12.17
2018-04-25T02:14:31.375Z,11.60
2018-04-25T02:16:59.701Z,11.50
2018-04-25T02:19:27.270Z,12.40
2018-04-25T02:21:54.823Z,10.87
2018-04-25T02:24:22.390Z,12.00
2018-04-25T02:26:49.949Z,11.73
2018-04-25T02:29:17.499Z,11.13
2018-04-25T02:31:45.834Z,10.60
2018-04-25T02:34:14.157Z,10.63
2018-04-25T02:36:41.737Z,12.37
2018-04-25T02:39:09.376Z,11.23
2018-04-25T02:41:36.874Z,11.37
2018-04-25T02:44:05.197Z,11.40
2018-04-25T02:46:32.788Z,10.67
2018-04-25T02:49:00.348Z,10.30
2018-04-25T02:51:27.920Z,11.80
2018-04-25T02:53:55.467Z,11.20
2018-04-25T02:56:23.047Z,10.83
2018-04-25T02:58:51.382Z,10.50
2018-04-25T03:01:18.964Z,11.00
2018-04-25T03:03:46.515Z,10.90
2018-04-25T03:06:14.100Z,10.93
2018-04-25T03:08:42.425Z,10.60
2018-04-25T03:11:09.999Z,9.73
2018-04-25T03:13:37.555Z,11.23
2018-04-25T03:16:05.130Z,10.87
2018-04-25T03:18:32.680Z,10.60
2018-04-25T03:21:00.249Z,11.30
2018-04-25T03:23:27.804Z,10.60
2018-04-25T03:25:55.372Z,10.83
2018-04-25T03:28:22.923Z,10.40
2018-04-25T03:30:50.602Z,10.27
2018-04-25T03:33:18.179Z,10.20
2018-04-25T03:35:45.773Z,9.30
2018-04-25T03:38:13.318Z,10.40
2018-04-25T03:40:41.660Z,10.67
2018-04-25T03:43:09.210Z,10.80
2018-04-25T03:45:36.775Z,11.40
2018-04-25T03:48:04.342Z,8.87
2018-04-25T03:50:31.923Z,10.63
2018-04-25T03:52:59.471Z,9.80
2018-04-25T03:55:27.050Z,11.27
2018-04-25T03:57:55.378Z,10.00
2018-04-25T04:00:22.924Z,10.53
2018-04-25T04:02:50.481Z,10.43
2018-04-25T04:05:18.036Z,9.00
2018-04-25T04:07:45.614Z,10.10
2018-04-25T04:10:13.163Z,11.30
2018-04-25T04:12:40.742Z,11.17
2018-04-25T04:15:08.284Z,11.80
2018-04-25T04:17:35.860Z,10.23
2018-04-25T04:20:04.225Z,9.87
2018-04-25T04:22:31.799Z,10.40
2018-04-25T04:24:59.355Z,11.43
2018-04-25T04:27:26.927Z,10.13
2018-04-25T04:29:54.475Z,11.83
2018-04-25T04:32:22.046Z,12.00
2018-04-25T04:34:50.377Z,11.07
2018-04-25T04:37:17.976Z,12.07
2018-04-25T04:39:45.545Z,10.83
2018-04-25T04:42:13.118Z,10.90
2018-04-25T04:44:40.653Z,10.23
2018-04-25T04:47:08.231Z,11.33
2018-04-25T04:49:36.033Z,9.77
2018-04-25T04:52:03.593Z,10.67
2018-04-25T04:54:31.148Z,11.90
2018-04-25T04:56:58.736Z,12.60
2018-04-25T04:59:26.289Z,11.10
2018-04-25T05:01:53.866Z,10.03
2018-04-25T05:04:21.415Z,10.77
2018-04-25T05:06:48.986Z,11.70
2018-04-25T05:09:16.539Z,11.80
2018-04-25T05:11:44.111Z,11.50
2018-04-25T05:14:11.671Z,11.40
2018-04-25T05:16:39.244Z,11.40
2018-04-25T05:19:06.817Z,10.93
2018-04-25T05:21:34.395Z,11.23
2018-04-25T05:24:02.714Z,12.17
2018-04-25T05:26:30.308Z,11.80
2018-04-25T05:28:57.860Z,11.73
2018-04-25T05:31:25.413Z,12.27
2018-04-25T05:33:52.987Z,12.53
2018-04-25T05:36:20.525Z,11.83
2018-04-25T05:38:48.145Z,11.73
2018-04-25T05:41:16.453Z,11.83
2018-04-25T05:43:44.028Z,11.70
2018-04-25T05:46:11.581Z,12.10
2018-04-25T05:48:39.169Z,12.90
2018-04-25T05:51:06.720Z,11.40
2018-04-25T05:53:34.301Z,12.57
2018-04-25T05:56:01.846Z,13.10
2018-04-25T05:58:29.432Z,13.33
2018-04-25T06:00:56.998Z,16.77
2018-04-25T06:03:24.598Z,12.97
2018-04-25T06:05:52.142Z,12.90
2018-04-25T06:08:19.720Z,13.53
2018-04-25T06:10:47.267Z,12.33
2018-04-25T06:13:14.843Z,11.70
2018-04-25T06:15:42.399Z,12.40
2018-04-25T06:18:09.974Z,12.83
2018-04-25T06:20:37.514Z,13.10
2018-04-25T06:23:05.099Z,11.50
2018-04-25T06:25:32.647Z,12.77
2018-04-25T06:28:00.253Z,12.50
2018-04-25T06:30:27.828Z,12.10
2018-04-25T06:32:55.402Z,12.83
2018-04-25T06:35:22.959Z,12.53
2018-04-25T06:37:50.548Z,11.60
2018-04-25T06:40:18.107Z,11.27
2018-04-25T06:42:45.683Z,12.27
2018-04-25T06:45:13.252Z,11.63
2018-04-25T06:47:41.562Z,10.67
2018-04-25T06:50:09.147Z,11.70
2018-04-25T06:52:36.691Z,11.30
2018-04-25T06:55:04.277Z,10.50
2018-04-25T06:57:31.831Z,12.97
2018-04-25T06:59:59.408Z,12.27
2018-04-25T07:02:26.961Z,13.30
2018-04-25T07:04:54.540Z,14.47
2018-04-25T07:07:22.889Z,13.77
2018-04-25T07:09:50.466Z,14.30
2018-04-25T07:12:18.022Z,11.47
2018-04-25T07:14:45.608Z,11.77
2018-04-25T07:17:13.925Z,10.60
2018-04-25T07:19:41.508Z,10.43
2018-04-25T07:22:09.068Z,11.83
2018-04-25T07:24:36.663Z,11.80
2018-04-25T07:27:04.984Z,11.53
2018-04-25T07:29:32.591Z,12.83
2018-04-25T07:32:00.917Z,11.40
2018-04-25T07:34:28.491Z,12.20
2018-04-25T07:36:56.050Z,11.00
2018-04-25T07:39:23.630Z,10.73
2018-04-25T07:41:51.213Z,10.47
2018-04-25T07:44:19.559Z,8.90
2018-04-25T07:46:47.119Z,9.00
2018-04-25T07:49:14.704Z,8.60
2018-04-25T07:51:43.037Z,9.20
2018-04-25T07:54:10.608Z,8.43
2018-04-25T07:56:38.156Z,6.70
2018-04-25T07:59:05.735Z,6.03
2018-04-25T08:01:33.279Z,6.67
2018-04-25T08:04:00.838Z,6.10
2018-04-25T08:06:28.399Z,6.17
2018-04-25T08:08:55.976Z,6.03
2018-04-25T08:11:23.516Z,5.80
2018-04-25T08:14:02.927Z,6.37
2018-04-25T08:16:42.169Z,6.33
2018-04-25T08:19:21.502Z,6.83
2018-04-25T08:21:49.063Z,5.93
2018-04-25T08:24:16.633Z,6.80
2018-04-25T08:26:44.188Z,6.10
2018-04-25T08:29:11.761Z,6.03
2018-04-25T08:31:39.320Z,5.97
2018-04-25T08:34:06.919Z,6.40
2018-04-25T08:36:34.472Z,5.97
2018-04-25T08:39:02.020Z,6.80
2018-04-25T08:41:29.587Z,5.90
2018-04-25T08:43:57.134Z,5.20
2018-04-25T08:46:24.699Z,6.93
2018-04-25T08:48:52.252Z,5.70
2018-04-25T08:51:19.827Z,7.33
2018-04-25T08:53:47.372Z,5.80
2018-04-25T08:56:14.944Z,7.17
2018-04-25T08:58:42.499Z,6.40
2018-04-25T09:01:10.080Z,6.80
2018-04-25T09:03:37.635Z,5.63
2018-04-25T09:06:05.216Z,6.20
2018-04-25T09:08:33.529Z,6.47
2018-04-25T09:11:01.091Z,6.53
2018-04-25T09:13:28.629Z,5.77
2018-04-25T09:15:56.202Z,6.23
2018-04-25T09:18:23.772Z,6.20
2018-04-25T09:20:51.346Z,5.13
2018-04-25T09:23:18.903Z,4.93
2018-04-25T09:25:46.469Z,5.83
2018-04-25T09:28:14.013Z,5.90
2018-04-25T09:30:41.588Z,5.80
2018-04-25T09:33:09.140Z,5.57
2018-04-25T09:35:37.477Z,5.53
2018-04-25T09:38:05.039Z,5.30
2018-04-25T09:40:32.602Z,4.43
2018-04-25T09:43:00.146Z,5.30
2018-04-25T09:45:28.490Z,6.10
2018-04-25T09:47:56.041Z,6.00
2018-04-25T09:50:23.614Z,6.00
2018-04-25T09:52:51.182Z,5.40
2018-04-25T09:55:18.727Z,5.10
2018-04-25T09:57:46.299Z,5.47
2018-04-25T10:00:14.630Z,5.60
2018-04-25T10:02:42.193Z,5.30
2018-04-25T10:05:09.739Z,4.80
2018-04-25T10:07:37.314Z,5.27
2018-04-25T10:10:04.871Z,5.60
2018-04-25T10:12:32.432Z,5.70
2018-04-25T10:14:59.982Z,4.87
2018-04-25T10:17:27.567Z,5.50
2018-04-25T10:19:55.907Z,5.40
2018-04-25T10:22:23.490Z,4.83
2018-04-25T10:24:51.044Z,5.10
2018-04-25T10:27:18.615Z,5.40
2018-04-25T10:29:46.158Z,5.87
2018-04-25T10:32:13.724Z,5.87
2018-04-25T10:34:41.271Z,5.57
2018-04-25T10:37:08.846Z,6.03
2018-04-25T10:39:36.388Z,6.27
2018-04-25T10:42:03.980Z,5.70
2018-04-25T10:44:31.528Z,5.70
2018-04-25T10:46:59.103Z,5.27
2018-04-25T10:49:26.644Z,5.53
2018-04-25T10:51:54.224Z,5.13
2018-04-25T10:54:21.764Z,5.27
2018-04-25T10:56:49.426Z,4.80
2018-04-25T10:59:17.185Z,5.47
2018-04-25T11:01:44.757Z,5.30
2018-04-25T11:04:12.314Z,6.57
2018-04-25T11:06:39.896Z,5.40
2018-04-25T11:09:07.451Z,6.17
2018-04-25T11:11:35.019Z,5.20
2018-04-25T11:14:02.580Z,4.93
2018-04-25T11:16:30.177Z,4.33
2018-04-25T11:18:58.495Z,5.30
2018-04-25T11:21:26.068Z,4.80
2018-04-25T11:23:53.619Z,5.63
2018-04-25T11:26:21.328Z,5.53
2018-04-25T11:28:49.671Z,5.47
2018-04-25T11:31:17.995Z,5.43
2018-04-25T11:33:46.332Z,6.10
2018-04-25T11:36:13.889Z,5.90
2018-04-25T11:38:41.459Z,5.43
2018-04-25T11:41:09.000Z,5.30
2018-04-25T11:43:36.573Z,4.20
2018-04-25T11:46:04.119Z,5.40
2018-04-25T11:48:31.722Z,5.50
2018-04-25T11:51:00.040Z,6.30
2018-04-25T11:53:27.596Z,5.30
2018-04-25T11:55:55.140Z,5.50
2018-04-25T11:58:22.715Z,5.63
2018-04-25T12:00:50.253Z,5.03
2018-04-25T12:03:17.812Z,6.03
2018-04-25T12:05:45.366Z,5.67
2018-04-25T12:08:12.944Z,6.07
2018-04-25T12:10:40.499Z,5.90
2018-04-25T12:13:08.097Z,6.10
2018-04-25T12:15:35.637Z,4.73
2018-04-25T12:18:03.207Z,5.17
2018-04-25T12:20:30.768Z,6.10
2018-04-25T12:22:58.338Z,5.47
2018-04-25T12:25:25.900Z,6.47
2018-04-25T12:27:53.481Z,5.60
2018-04-25T12:30:21.799Z,4.93
2018-04-25T12:32:49.367Z,5.30
2018-04-25T12:35:16.914Z,5.30
2018-04-25T12:37:44.470Z,6.23
2018-04-25T12:40:12.010Z,4.87
2018-04-25T12:42:40.349Z,5.40
2018-04-25T12:45:07.884Z,4.60
2018-04-25T12:47:35.447Z,5.60
2018-04-25T12:50:03.116Z,5.37
2018-04-25T12:52:30.758Z,4.77
2018-04-25T12:54:58.343Z,6.00
2018-04-25T12:57:25.904Z,6.17
2018-04-25T12:59:53.459Z,5.07
2018-04-25T13:02:21.000Z,6.30
2018-04-25T13:04:48.579Z,5.50
2018-04-25T13:07:16.200Z,5.83
2018-04-25T13:09:43.800Z,4.80
2018-04-25T13:12:11.359Z,5.13
2018-04-25T13:14:38.965Z,5.73
2018-04-25T13:17:07.294Z,4.97
2018-04-25T13:19:34.859Z,4.93
2018-04-25T13:22:02.405Z,5.20
2018-04-25T13:24:29.985Z,5.40
2018-04-25T13:26:57.539Z,5.07
2018-04-25T13:29:25.116Z,6.30
2018-04-25T13:31:52.676Z,4.77
2018-04-25T13:34:20.254Z,5.17
2018-04-25T13:36:48.575Z,16.90
2018-04-25T13:39:16.151Z,5.17
2018-04-25T13:41:43.692Z,4.80
2018-04-25T13:44:11.258Z,4.67
2018-04-25T13:46:38.814Z,6.20
2018-04-25T13:49:06.375Z,5.70
2018-04-25T13:51:33.916Z,5.57
2018-04-25T13:54:01.504Z,6.30
2018-04-25T13:56:29.825Z,5.20
2018-04-25T13:58:58.180Z,5.53
2018-04-25T14:01:26.523Z,5.20
2018-04-25T14:03:54.104Z,6.70
2018-04-25T14:06:21.651Z,5.80
2018-04-25T14:08:49.301Z,6.20
2018-04-25T14:11:16.864Z,5.10
2018-04-25T14:13:44.443Z,6.17
2018-04-25T14:16:11.983Z,5.70
2018-04-25T14:18:39.552Z,5.60
2018-04-25T14:21:07.321Z,5.40
2018-04-25T14:23:35.712Z,6.23
2018-04-25T14:26:03.267Z,5.70
2018-04-25T14:28:30.838Z,5.63
2018-04-25T14:30:58.378Z,5.23
2018-04-25T14:33:25.961Z,5.40
2018-04-25T14:35:53.524Z,5.70
2018-04-25T14:38:21.072Z,5.30
2018-04-25T14:40:49.439Z,5.10
2018-04-25T14:43:16.981Z,5.13
2018-04-25T14:45:44.547Z,4.70
2018-04-25T14:48:12.091Z,4.93
2018-04-25T14:50:39.654Z,4.83
2018-04-25T14:53:07.189Z,4.30
2018-04-25T14:55:35.528Z,4.70
2018-04-25T14:58:03.110Z,4.27
2018-04-25T15:00:31.450Z,3.67
2018-04-25T15:02:58.998Z,4.20
2018-04-25T15:05:26.564Z,3.57
2018-04-25T15:07:54.097Z,3.33
2018-04-25T15:10:21.672Z,4.00
2018-04-25T15:12:49.217Z,3.60
2018-04-25T15:15:16.777Z,3.27
2018-04-25T15:17:44.324Z,3.60
2018-04-25T15:20:12.650Z,2.90
2018-04-25T15:22:40.196Z,3.20
2018-04-25T15:25:07.765Z,4.00
2018-04-25T15:27:36.079Z,4.00
2018-04-25T15:30:04.420Z,3.40
2018-04-25T15:32:31.976Z,3.80
2018-04-25T15:34:59.538Z,3.47
2018-04-25T15:37:27.076Z,3.70
2018-04-25T15:39:54.640Z,3.03
2018-04-25T15:42:22.381Z,3.80
2018-04-25T15:44:49.963Z,3.37
2018-04-25T15:47:17.503Z,3.60
2018-04-25T15:49:45.080Z,3.27
2018-04-25T15:52:12.636Z,3.90
2018-04-25T15:54:40.200Z,3.23
2018-04-25T15:57:07.741Z,3.63
2018-04-25T15:59:35.293Z,4.57
2018-04-25T16:02:02.868Z,3.80
2018-04-25T16:04:30.419Z,4.80
2018-04-25T16:06:58.000Z,4.30
2018-04-25T16:09:25.553Z,4.43
2018-04-25T16:11:53.125Z,3.73
2018-04-25T16:14:20.673Z,4.50
2018-04-25T16:16:48.252Z,3.77
2018-04-25T16:19:15.805Z,3.57
2018-04-25T16:21:43.387Z,4.10
2018-04-25T16:24:10.928Z,4.50
2018-04-25T16:26:38.635Z,4.03
2018-04-25T16:29:06.244Z,3.57
2018-04-25T16:31:33.827Z,4.17
2018-04-25T16:34:01.384Z,4.50
2018-04-25T16:36:28.956Z,4.20
2018-04-25T16:38:56.510Z,4.30
2018-04-25T16:41:24.070Z,4.60
2018-04-25T16:43:51.598Z,5.07
2018-04-25T16:46:19.163Z,4.07
2018-04-25T16:48:46.697Z,4.17
2018-04-25T16:51:14.272Z,3.97
2018-04-25T16:53:41.823Z,4.60
2018-04-25T16:56:09.404Z,3.87
2018-04-25T16:58:36.937Z,4.50
2018-04-25T17:01:04.513Z,4.57
2018-04-25T17:03:32.060Z,4.43
2018-04-25T17:05:59.633Z,4.80
2018-04-25T17:08:27.183Z,5.53
2018-04-25T17:10:54.757Z,5.37
2018-04-25T17:13:22.294Z,3.90
2018-04-25T17:15:49.869Z,3.90
2018-04-25T17:18:17.415Z,4.63
2018-04-25T17:20:45.009Z,4.57
2018-04-25T17:23:12.558Z,5.50
2018-04-25T17:25:40.136Z,4.70
2018-04-25T17:28:07.670Z,4.43
2018-04-25T17:30:35.237Z,5.57
2018-04-25T17:33:02.821Z,5.83
2018-04-25T17:35:30.605Z,4.57
2018-04-25T17:37:58.229Z,4.00
2018-04-25T17:40:26.998Z,4.63
2018-04-25T17:42:56.172Z,4.63
2018-04-25T17:45:23.645Z,3.90
2018-04-25T17:47:51.226Z,5.27
2018-04-25T17:50:18.775Z,4.77
2018-04-25T17:52:46.355Z,5.77
2018-04-25T17:55:13.890Z,7.60
2018-04-25T17:57:41.463Z,6.73
2018-04-25T18:00:09.009Z,6.00
2018-04-25T18:02:36.604Z,4.43
2018-04-25T18:05:04.156Z,5.13
2018-04-25T18:07:31.722Z,4.37
2018-04-25T18:09:59.267Z,3.90
2018-04-25T18:12:26.841Z,3.40
2018-04-25T18:14:54.387Z,5.33
2018-04-25T18:17:21.956Z,5.13
2018-04-25T18:19:49.516Z,6.73
2018-04-25T18:22:17.078Z,5.80
2018-04-25T18:24:44.646Z,6.10
2018-04-25T18:27:12.225Z,3.97
2018-04-25T18:29:40.541Z,4.03
2018-04-25T18:32:08.127Z,3.67
2018-04-25T18:34:36.456Z,3.13
2018-04-25T18:37:04.787Z,3.23
2018-04-25T18:39:32.339Z,3.40
2018-04-25T18:42:00.143Z,4.30
2018-04-25T18:44:27.734Z,3.60
2018-04-25T18:46:55.315Z,4.37
2018-04-25T18:49:22.915Z,5.17
2018-04-25T18:51:51.449Z,3.47
2018-04-25T18:54:18.997Z,3.77
2018-04-25T18:56:46.596Z,3.73
2018-04-25T18:59:14.146Z,3.00
2018-04-25T19:01:41.718Z,2.87
2018-04-25T19:04:09.276Z,3.30
2018-04-25T19:06:36.858Z,3.73
2018-04-25T19:09:05.190Z,3.63
2018-04-25T19:11:32.732Z,3.37
2018-04-25T19:14:00.295Z,3.20
2018-04-25T19:16:27.901Z,3.03
2018-04-25T19:18:55.467Z,3.10
2018-04-25T19:21:23.027Z,3.37
2018-04-25T19:23:50.595Z,3.70
2018-04-25T19:26:18.914Z,2.90
2018-04-25T19:28:46.508Z,3.10
2018-04-25T19:31:14.047Z,3.03
2018-04-25T19:33:41.627Z,3.60
2018-04-25T19:36:09.179Z,2.70
2018-04-25T19:38:37.832Z,3.30
2018-04-25T19:41:06.210Z,2.90
2018-04-25T19:43:33.859Z,2.63
2018-04-25T19:46:01.512Z,3.40
2018-04-25T19:48:29.110Z,3.90
2018-04-25T19:50:56.663Z,3.80
2018-04-25T19:53:24.227Z,3.30
2018-04-25T19:55:51.773Z,3.70
2018-04-25T19:58:19.354Z,3.47
2018-04-25T20:00:46.918Z,3.60
2018-04-25T20:03:14.495Z,3.10
2018-04-25T20:05:42.044Z,3.37
2018-04-25T20:08:09.615Z,3.07
2018-04-25T20:10:37.414Z,2.40
2018-04-25T20:13:05.262Z,2.37
2018-04-25T20:15:32.930Z,2.27
2018-04-25T20:18:00.544Z,2.23
2018-04-25T20:20:28.087Z,2.87
2018-04-25T20:22:55.893Z,2.83
2018-04-25T20:25:23.696Z,1.70
2018-04-25T20:27:52.030Z,1.40
2018-04-25T20:30:19.576Z,1.93
2018-04-25T20:32:47.155Z,1.73
2018-04-25T20:35:15.472Z,2.23
2018-04-25T20:37:43.809Z,2.00
2018-04-25T20:40:11.354Z,2.17
2018-04-25T20:42:38.922Z,2.33
2018-04-25T20:45:07.244Z,1.80
2018-04-25T20:47:34.836Z,2.00
2018-04-25T20:50:02.383Z,1.53
2018-04-25T20:52:29.947Z,1.50
2018-04-25T20:54:57.752Z,1.70
2018-04-25T20:57:26.173Z,2.30
2018-04-25T20:59:53.784Z,1.67
2018-04-25T21:02:21.412Z,1.80
2018-04-25T21:04:48.937Z,1.87
2018-04-25T21:07:17.257Z,1.70
2018-04-25T21:09:44.834Z,1.60
2018-04-25T21:12:12.378Z,1.90
2018-04-25T21:14:39.943Z,2.70
2018-04-25T21:17:07.501Z,1.87
2018-04-25T21:19:35.176Z,2.00
2018-04-25T21:22:02.781Z,2.20
2018-04-25T21:24:30.534Z,1.87
2018-04-25T21:26:58.855Z,1.87
2018-04-25T21:29:26.441Z,1.77
2018-04-25T21:31:53.988Z,2.27
2018-04-25T21:34:21.562Z,1.90
2018-04-25T21:36:49.115Z,1.70
2018-04-25T21:39:16.683Z,2.10
2018-04-25T21:41:44.243Z,2.23
2018-04-25T21:44:12.578Z,2.73
2018-04-25T21:46:40.123Z,2.40
2018-04-25T21:49:07.697Z,2.87
2018-04-25T21:51:35.251Z,2.40
2018-04-25T21:54:02.845Z,2.63
2018-04-25T21:56:30.389Z,3.03
2018-04-25T21:58:57.971Z,2.80
2018-04-25T22:01:25.529Z,2.60
2018-04-25T22:03:53.100Z,2.53
2018-04-25T22:06:20.649Z,3.47
2018-04-25T22:08:48.217Z,2.87
2018-04-25T22:11:15.773Z,2.90
2018-04-25T22:13:43.339Z,2.77
2018-04-25T22:16:10.875Z,2.40
2018-04-25T22:18:38.440Z,2.80
2018-04-25T22:21:06.003Z,2.53
2018-04-25T22:23:33.580Z,2.57
2018-04-25T22:26:01.130Z,2.40
2018-04-25T22:28:28.691Z,2.33
2018-04-25T22:30:56.239Z,2.73
2018-04-25T22:33:23.805Z,2.57
2018-04-25T22:35:51.352Z,2.30
2018-04-25T22:38:18.915Z,2.53
2018-04-25T22:40:46.489Z,2.53
2018-04-25T22:43:14.025Z,2.37
2018-04-25T22:45:41.593Z,2.33
2018-04-25T22:48:09.145Z,2.43
2018-04-25T22:50:36.726Z,2.50
2018-04-25T22:53:04.269Z,2.90
2018-04-25T22:55:31.840Z,2.73
2018-04-25T22:57:59.395Z,3.27
2018-04-25T23:00:26.968Z,3.13
2018-04-25T23:02:54.515Z,3.33
2018-04-25T23:05:22.088Z,3.43
2018-04-25T23:07:49.992Z,3.27
2018-04-25T23:10:18.421Z,3.70
2018-04-25T23:12:45.993Z,3.17
2018-04-25T23:15:13.564Z,3.40
2018-04-25T23:17:41.119Z,3.60
2018-04-25T23:20:08.754Z,3.57
2018-04-25T23:22:37.025Z,2.93
2018-04-25T23:25:04.612Z,3.63
2018-04-25T23:27:32.168Z,3.20
2018-04-25T23:29:59.744Z,3.33
2018-04-25T23:32:27.292Z,3.30
2018-04-25T23:37:29.558Z,3.73
2018-04-25T23:39:57.131Z,3.67
2018-04-25T23:42:24.689Z,3.50
2018-04-25T23:44:52.251Z,3.40
2018-04-25T23:47:19.804Z,3.87
2018-04-25T23:49:47.378Z,3.00
2018-04-25T23:52:14.927Z,3.80
2018-04-25T23:54:42.512Z,3.03
2018-04-25T23:57:10.067Z,2.90
2018-04-25T23:59:37.718Z,3.47
